Time;durP1;ratioP1;P1;durP2;ratioP2;P2;SDS_P1;SDS_P2;PMS_P1;PMS_P2;Temp;Humidity;BMP_temperature;BMP_pressure;BME280_temperature;BME280_humidity;BME280_pressure;Samples;Min_cycle;Max_cycle;Signal;HPM_P1;HPM_P2
2022/09/01 00:02:15;;;;;;;4.25;2.72;;;13.60;99.90;;;;;;5001000;28;89951;-33
2022/09/01 00:04:43;;;;;;;4.05;2.50;;;13.60;99.90;;;;;;5001262;28;89302;-30
2022/09/01 00:07:11;;;;;;;3.50;3.20;;;13.60;99.90;;;;;;5001507;28;89951;-35
2022/09/01 00:09:38;;;;;;;4.53;2.47;;;13.50;99.90;;;;;;5001707;28;90033;-36
2022/09/01 00:12:07;;;;;;;3.92;2.42;;;13.50;99.90;;;;;;5001070;28;88023;-32
2022/09/01 00:14:36;;;;;;;6.55;2.42;;;13.40;99.90;;;;;;4988019;28;87810;-32
2022/09/01 00:17:07;;;;;;;5.55;3.38;;;13.40;99.90;;;;;;5001395;28;89866;-34
2022/09/01 00:19:34;;;;;;;2.22;2.00;;;13.40;99.90;;;;;;5001531;28;89747;-29
2022/09/01 00:22:01;;;;;;;3.90;2.73;;;13.40;99.90;;;;;;5000990;28;89746;-32
2022/09/01 00:24:26;;;;;;;3.83;2.22;;;13.40;99.90;;;;;;5001244;28;90515;-32
2022/09/01 00:26:53;;;;;;;6.55;2.78;;;13.30;99.90;;;;;;5001258;28;89850;-30
2022/09/01 00:29:20;;;;;;;3.63;2.65;;;13.30;99.90;;;;;;5000911;28;88605;-30
2022/09/01 00:31:46;;;;;;;3.28;3.00;;;13.30;99.90;;;;;;5036892;22;88559;-31
2022/09/01 00:34:12;;;;;;;2.42;2.22;;;13.20;99.90;;;;;;4999784;28;89618;-33
2022/09/01 00:36:37;;;;;;;2.88;2.63;;;13.20;99.90;;;;;;5000507;28;90362;-31
2022/09/01 00:39:04;;;;;;;3.75;2.70;;;13.20;99.90;;;;;;5001205;28;89769;-34
2022/09/01 00:41:31;;;;;;;3.67;2.97;;;13.20;99.90;;;;;;5000774;28;89435;-32
2022/09/01 00:44:00;;;;;;;2.37;2.17;;;13.20;99.90;;;;;;5000851;28;87586;-31
2022/09/01 00:46:29;;;;;;;3.20;2.67;;;13.10;99.90;;;;;;4999884;28;91272;-31
2022/09/01 00:49:06;;;;;;;3.38;3.08;;;13.10;99.90;;;;;;4999644;28;89693;-34
2022/09/01 00:51:35;;;;;;;3.10;2.80;;;13.10;99.90;;;;;;5000967;28;88269;-30
2022/09/01 00:54:04;;;;;;;6.30;2.55;;;13.10;99.90;;;;;;5001200;28;88340;-30
2022/09/01 00:56:30;;;;;;;;;;;13.10;99.90;;;;;;5000995;28;90144;-34
2022/09/01 00:58:58;;;;;;;4.05;2.47;;;13.00;99.90;;;;;;5001891;28;90048;-31
2022/09/01 01:01:23;;;;;;;2.92;2.72;;;13.00;99.90;;;;;;4999462;28;88204;-30
2022/09/01 01:03:49;;;;;;;2.42;2.22;;;13.00;99.90;;;;;;5001014;28;87762;-31
2022/09/01 01:06:18;;;;;;;4.47;2.75;;;12.90;99.90;;;;;;5000210;28;91193;-30
2022/09/01 01:08:57;;;;;;;2.83;2.55;;;12.90;99.90;;;;;;5000404;28;89627;-34
2022/09/01 01:11:25;;;;;;;6.13;2.90;;;12.90;99.90;;;;;;5000120;28;89704;-31
2022/09/01 01:14:11;;;;;;;2.88;2.45;;;12.90;99.90;;;;;;5000260;28;89433;-31
2022/09/01 01:16:45;;;;;;;1.98;1.75;;;12.90;99.90;;;;;;5000759;28;91092;-29
2022/09/01 01:25:01;;;;;;;2.70;2.50;;;12.80;99.90;;;;;;5000199;28;87614;-31
2022/09/01 01:27:32;;;;;;;4.55;2.97;;;12.80;99.90;;;;;;4999197;28;90092;-32
2022/09/01 01:30:00;;;;;;;3.35;3.03;;;12.80;99.90;;;;;;5000129;28;88003;-31
2022/09/01 01:32:28;;;;;;;3.65;2.83;;;12.80;99.90;;;;;;4999665;28;88782;-29
2022/09/01 01:34:53;;;;;;;3.50;2.65;;;12.80;99.90;;;;;;4985786;28;88282;-33
2022/09/01 01:37:22;;;;;;;3.47;2.63;;;12.70;99.90;;;;;;5000510;28;90164;-30
2022/09/01 01:39:48;;;;;;;2.67;2.47;;;12.70;99.90;;;;;;4999903;28;90029;-30
2022/09/01 01:42:14;;;;;;;2.92;2.70;;;12.60;99.90;;;;;;4999499;28;87559;-31
2022/09/01 01:44:41;;;;;;;3.30;2.58;;;12.60;99.90;;;;;;5000757;28;88892;-32
2022/09/01 01:47:11;;;;;;;4.43;2.75;;;12.60;99.90;;;;;;4999615;28;90420;-30
2022/09/01 01:49:41;;;;;;;5.10;3.00;;;12.50;99.90;;;;;;4999872;28;89736;-30
2022/09/01 01:52:07;;;;;;;2.72;2.53;;;12.50;99.90;;;;;;5000310;28;87587;-30
2022/09/01 01:54:32;;;;;;;2.63;2.40;;;12.50;99.90;;;;;;5000095;28;89886;-29
2022/09/01 01:56:59;;;;;;;3.05;2.70;;;12.50;99.90;;;;;;5000042;28;91083;-30
2022/09/01 01:59:25;;;;;;;3.53;3.05;;;12.50;99.90;;;;;;5000510;28;89333;-31
2022/09/01 02:01:51;;;;;;;3.13;2.80;;;12.50;99.90;;;;;;5002927;28;89704;-34
2022/09/01 02:04:19;;;;;;;2.70;2.50;;;12.40;99.90;;;;;;5003295;28;87512;-33
2022/09/01 02:06:46;;;;;;;9.23;2.83;;;12.40;99.90;;;;;;5003665;28;90205;-32
2022/09/01 02:09:14;;;;;;;2.88;2.67;;;12.40;99.90;;;;;;5002779;28;89988;-32
2022/09/01 02:11:39;;;;;;;6.90;2.80;;;12.40;99.90;;;;;;5003194;28;88722;-30
2022/09/01 02:14:07;;;;;;;3.85;3.30;;;12.30;99.90;;;;;;5003547;28;90135;-30
2022/09/01 02:16:34;;;;;;;5.20;2.47;;;12.30;99.90;;;;;;5002353;28;89782;-33
2022/09/01 02:19:02;;;;;;;5.60;3.10;;;12.30;99.90;;;;;;5003103;28;89689;-31
2022/09/01 02:21:28;;;;;;;3.10;2.90;;;12.20;99.90;;;;;;5002609;28;89655;-36
2022/09/01 02:24:00;;;;;;;3.78;3.20;;;12.20;99.90;;;;;;5003097;28;88807;-31
2022/09/01 02:26:33;;;;;;;2.50;2.30;;;12.10;99.90;;;;;;5002978;28;90219;-30
2022/09/01 02:29:03;;;;;;;2.72;2.53;;;12.10;99.90;;;;;;5002483;28;89827;-33
2022/09/01 02:31:31;;;;;;;4.07;2.78;;;12.10;99.90;;;;;;4988918;28;89780;-32
2022/09/01 02:33:57;;;;;;;;;;;12.10;99.90;;;;;;5002460;28;89103;-33
2022/09/01 02:36:24;;;;;;;4.38;2.92;;;12.00;99.90;;;;;;5003776;28;90588;-30
2022/09/01 02:38:50;;;;;;;3.47;3.17;;;12.00;99.90;;;;;;5001969;28;89778;-33
2022/09/01 02:41:19;;;;;;;3.20;3.00;;;12.00;99.90;;;;;;5002511;28;88363;-30
2022/09/01 02:43:45;;;;;;;4.07;2.88;;;12.00;99.90;;;;;;5003397;28;89662;-34
2022/09/01 02:46:12;;;;;;;3.70;3.40;;;12.00;99.90;;;;;;5001925;28;89141;-30
2022/09/01 02:48:41;;;;;;;4.88;3.28;;;12.00;99.90;;;;;;5002178;28;89895;-31
2022/09/01 02:51:13;;;;;;;5.38;3.22;;;12.00;99.90;;;;;;5002310;28;90901;-29
2022/09/01 02:53:41;;;;;;;4.47;2.88;;;12.00;99.90;;;;;;5000683;28;90389;-30
2022/09/01 02:56:13;;;;;;;4.03;3.30;;;12.10;99.90;;;;;;5001669;28;89599;-31
2022/09/01 02:58:44;;;;;;;3.83;2.80;;;12.00;99.90;;;;;;5002155;28;89361;-32
2022/09/01 03:01:13;;;;;;;9.40;2.90;;;12.10;99.90;;;;;;5002881;28;89279;-33
2022/09/01 03:03:39;;;;;;;3.15;2.95;;;12.10;99.90;;;;;;5002317;28;89835;-29
2022/09/01 03:06:08;;;;;;;3.00;2.80;;;12.10;99.90;;;;;;5002292;28;90345;-30
2022/09/01 03:08:37;;;;;;;2.80;2.55;;;12.10;99.90;;;;;;5001513;28;89783;-32
2022/09/01 03:11:03;;;;;;;3.75;3.45;;;12.10;99.90;;;;;;5001556;28;89567;-31
2022/09/01 03:13:30;;;;;;;3.88;3.30;;;12.10;99.90;;;;;;5002849;28;87658;-31
2022/09/01 03:15:56;;;;;;;4.10;2.78;;;12.10;99.90;;;;;;5002374;28;92155;-32
2022/09/01 03:18:21;;;;;;;3.42;2.92;;;12.10;99.90;;;;;;5002662;28;89562;-30
2022/09/01 03:20:49;;;;;;;3.60;2.85;;;12.10;99.90;;;;;;5002966;28;88377;-29
2022/09/01 03:23:17;;;;;;;4.15;3.10;;;12.10;99.90;;;;;;5002019;28;88166;-31
2022/09/01 03:25:44;;;;;;;3.78;3.17;;;12.00;99.90;;;;;;5001346;28;90271;-29
2022/09/01 03:28:11;;;;;;;3.22;3.03;;;12.00;99.90;;;;;;5001843;28;89806;-35
2022/09/01 03:30:39;;;;;;;3.60;3.25;;;12.00;99.90;;;;;;5002590;28;88238;-32
2022/09/01 03:33:06;;;;;;;3.70;3.20;;;12.00;99.90;;;;;;4987392;28;89387;-33
2022/09/01 03:35:32;;;;;;;3.55;3.22;;;12.00;99.90;;;;;;5001448;28;90117;-28
2022/09/01 03:38:00;;;;;;;5.15;3.33;;;12.00;99.90;;;;;;5001563;28;89631;-30
2022/09/01 03:40:31;;;;;;;5.38;3.30;;;12.00;99.90;;;;;;5002347;28;88040;-33
2022/09/01 03:42:58;;;;;;;3.65;3.17;;;12.00;99.90;;;;;;5002170;28;88987;-34
2022/09/01 03:45:24;;;;;;;4.13;3.72;;;12.00;99.90;;;;;;5001617;28;90248;-32
2022/09/01 03:47:51;;;;;;;3.50;3.13;;;11.90;99.90;;;;;;5001340;28;90414;-30
2022/09/01 03:50:20;;;;;;;3.15;2.85;;;12.00;99.90;;;;;;5002120;28;87552;-30
2022/09/01 03:52:54;;;;;;;3.65;3.13;;;11.90;99.90;;;;;;5001906;28;89878;-35
2022/09/01 03:55:23;;;;;;;4.30;3.38;;;11.90;99.90;;;;;;5001404;28;89887;-32
2022/09/01 03:57:54;;;;;;;10.63;3.88;;;11.90;99.90;;;;;;5001126;28;90099;-31
2022/09/01 04:00:23;;;;;;;4.50;3.40;;;11.90;99.90;;;;;;5000845;28;89005;-34
2022/09/01 04:02:49;;;;;;;;;;;11.90;99.90;;;;;;5001843;28;88488;-32
2022/09/01 04:05:17;;;;;;;4.65;3.30;;;11.80;99.90;;;;;;5002543;28;89884;-35
2022/09/01 04:07:44;;;;;;;3.85;3.55;;;11.90;99.90;;;;;;5001436;28;89801;-33
2022/09/01 04:10:10;;;;;;;4.15;3.13;;;11.90;99.90;;;;;;5001314;28;88721;-32
2022/09/01 04:12:37;;;;;;;3.75;3.35;;;11.90;99.90;;;;;;5001075;28;87841;-33
2022/09/01 04:15:04;;;;;;;4.30;3.90;;;11.80;99.90;;;;;;5001538;28;90272;-29
2022/09/01 04:20:18;;;;;;;3.53;3.28;;;11.90;99.90;;;;;;5000849;28;88589;-29
2022/09/01 04:22:46;;;;;;;3.67;3.25;;;11.90;99.90;;;;;;4999380;28;87638;-32
2022/09/01 04:25:13;;;;;;;4.60;3.47;;;11.90;99.90;;;;;;5001276;28;89021;-33
2022/09/01 04:27:39;;;;;;;3.72;3.33;;;12.00;99.90;;;;;;5001596;28;89953;-30
2022/09/01 04:30:09;;;;;;;4.55;4.15;;;12.00;99.90;;;;;;5001238;28;88907;-35
2022/09/01 04:32:39;;;;;;;7.10;3.80;;;12.00;99.90;;;;;;5000013;28;88138;-30
2022/09/01 04:35:06;;;;;;;3.60;3.30;;;12.00;99.90;;;;;;5000544;28;91165;-33
2022/09/01 04:37:35;;;;;;;4.25;3.05;;;12.00;99.90;;;;;;5000773;28;89328;-31
2022/09/01 04:40:02;;;;;;;4.07;3.67;;;12.00;99.90;;;;;;5001325;28;88628;-31
2022/09/01 04:42:31;;;;;;;5.43;3.35;;;12.00;99.90;;;;;;5000785;28;88558;-33
2022/09/01 04:44:58;;;;;;;3.92;3.55;;;12.00;99.90;;;;;;5001031;28;90318;-30
2022/09/01 04:47:31;;;;;;;5.13;3.93;;;12.10;99.90;;;;;;4999960;28;89491;-32
2022/09/01 04:50:00;;;;;;;3.80;3.50;;;12.10;99.90;;;;;;4983621;28;87570;-34
2022/09/01 04:52:26;;;;;;;4.32;3.92;;;12.10;99.90;;;;;;5000908;28;88804;-33
2022/09/01 04:54:53;;;;;;;4.15;3.75;;;12.00;99.90;;;;;;4999602;28;89989;-32
2022/09/01 04:57:19;;;;;;;3.85;3.55;;;12.10;99.90;;;;;;5000073;28;89720;-31
2022/09/01 04:59:45;;;;;;;5.00;4.28;;;12.10;99.90;;;;;;5000880;28;89822;-29
2022/09/01 05:02:11;;;;;;;4.75;4.18;;;12.10;99.90;;;;;;5000167;28;89251;-32
2022/09/01 05:04:36;;;;;;;3.97;3.67;;;12.10;99.90;;;;;;5000791;28;90262;-31
2022/09/01 05:07:03;;;;;;;8.88;3.95;;;12.00;99.90;;;;;;4981612;28;89996;-34
2022/09/01 05:09:34;;;;;;;5.47;3.95;;;12.10;99.90;;;;;;4999910;28;88734;-31
2022/09/01 05:12:09;;;;;;;3.40;3.10;;;12.10;99.90;;;;;;5000703;28;89204;-32
2022/09/01 05:14:41;;;;;;;3.63;3.20;;;12.10;99.90;;;;;;5000584;28;90224;-32
2022/09/01 05:17:11;;;;;;;4.15;3.20;;;12.10;99.90;;;;;;5000291;28;89343;-32
2022/09/01 05:19:42;;;;;;;4.05;3.75;;;12.10;99.90;;;;;;5000068;28;89776;-35
2022/09/01 05:22:09;;;;;;;4.03;3.63;;;12.10;99.90;;;;;;5000247;28;89728;-31
2022/09/01 05:24:35;;;;;;;4.07;3.70;;;12.10;99.90;;;;;;5000179;28;88985;-35
2022/09/01 05:27:01;;;;;;;3.78;3.30;;;12.10;99.90;;;;;;5000596;28;90229;-31
2022/09/01 05:29:27;;;;;;;4.50;4.07;;;12.10;99.90;;;;;;5000009;28;88604;-31
2022/09/01 05:31:54;;;;;;;3.45;3.25;;;12.20;99.90;;;;;;5000117;28;88393;-32
2022/09/01 05:34:25;;;;;;;3.58;3.05;;;12.20;99.90;;;;;;5001633;28;89645;-33
2022/09/01 05:36:51;;;;;;;5.03;3.90;;;12.20;99.90;;;;;;5004289;28;89470;-31
2022/09/01 05:39:17;;;;;;;3.47;3.10;;;12.20;99.90;;;;;;5003528;28;89915;-31
2022/09/01 05:41:44;;;;;;;6.97;3.97;;;12.30;99.90;;;;;;5003728;28;89620;-35
2022/09/01 05:44:10;;;;;;;4.25;3.85;;;12.30;99.90;;;;;;5003139;28;89350;-32
2022/09/01 05:46:38;;;;;;;4.10;3.72;;;12.40;99.90;;;;;;5002957;28;90105;-33
2022/09/01 05:49:05;;;;;;;4.28;3.92;;;12.40;99.90;;;;;;5003102;28;88646;-35
2022/09/01 05:51:35;;;;;;;5.40;4.00;;;12.40;99.90;;;;;;5003831;28;89543;-31
2022/09/01 05:54:02;;;;;;;7.53;3.80;;;12.50;99.90;;;;;;5003189;28;90866;-33
2022/09/01 05:56:29;;;;;;;6.40;3.60;;;12.50;99.90;;;;;;5002170;28;89812;-31
2022/09/01 05:58:58;;;;;;;5.82;4.05;;;12.60;99.90;;;;;;5003082;28;88194;-29
2022/09/01 06:01:26;;;;;;;3.95;3.38;;;12.60;99.90;;;;;;5002820;28;87460;-32
2022/09/01 06:03:54;;;;;;;4.88;4.30;;;12.60;99.90;;;;;;5003214;28;90227;-32
2022/09/01 06:06:21;;;;;;;;;;;12.60;99.90;;;;;;5003333;28;89488;-33
2022/09/01 06:08:51;;;;;;;4.88;4.43;;;12.60;99.90;;;;;;5004820;28;87653;-31
2022/09/01 06:11:18;;;;;;;4.93;4.53;;;12.70;99.90;;;;;;5003741;28;88515;-30
2022/09/01 06:13:46;;;;;;;5.10;4.65;;;12.70;99.90;;;;;;5003329;28;90685;-33
2022/09/01 06:16:15;;;;;;;4.43;3.95;;;12.80;99.90;;;;;;4985068;28;89587;-33
2022/09/01 06:18:42;;;;;;;4.22;3.70;;;12.80;99.90;;;;;;5002532;28;89355;-34
2022/09/01 06:21:13;;;;;;;5.15;4.65;;;12.80;99.90;;;;;;5000572;28;89146;-34
2022/09/01 06:23:43;;;;;;;4.40;4.10;;;12.90;99.90;;;;;;5002800;28;90300;-31
2022/09/01 06:26:22;;;;;;;4.55;4.05;;;12.90;99.90;;;;;;5003317;28;90171;-31
2022/09/01 06:28:53;;;;;;;4.00;3.70;;;13.00;99.90;;;;;;5002999;28;87574;-34
2022/09/01 06:31:22;;;;;;;6.22;4.20;;;13.10;99.90;;;;;;5002599;28;88289;-30
2022/09/01 06:33:52;;;;;;;4.07;3.78;;;13.20;99.90;;;;;;5001585;28;89867;-33
2022/09/01 06:36:22;;;;;;;9.77;4.85;;;13.30;99.90;;;;;;5000573;28;89522;-33
2022/09/01 06:38:50;;;;;;;4.80;4.43;;;13.40;99.90;;;;;;5001116;28;89581;-34
2022/09/01 06:41:18;;;;;;;4.65;4.10;;;13.50;99.90;;;;;;4987889;28;89169;-31
2022/09/01 06:43:48;;;;;;;5.68;5.05;;;13.60;99.90;;;;;;5001640;28;89066;-33
2022/09/01 06:46:16;;;;;;;4.30;4.00;;;13.70;99.90;;;;;;5000017;28;90660;-30
2022/09/01 06:48:45;;;;;;;4.68;4.22;;;13.90;99.90;;;;;;5001660;28;90505;-32
2022/09/01 06:51:15;;;;;;;5.18;4.75;;;13.90;99.90;;;;;;5002613;28;89321;-30
2022/09/01 06:53:43;;;;;;;7.05;4.90;;;14.00;99.90;;;;;;5001832;28;90404;-34
2022/09/01 06:56:12;;;;;;;4.78;4.47;;;14.10;99.90;;;;;;5000676;28;90700;-32
2022/09/01 06:58:46;;;;;;;4.25;3.95;;;14.20;99.90;;;;;;4983867;28;89667;-32
2022/09/01 07:01:14;;;;;;;6.55;5.68;;;14.40;99.90;;;;;;5001250;28;89672;-37
2022/09/01 07:03:44;;;;;;;4.25;3.85;;;14.50;99.90;;;;;;5001788;28;89386;-33
2022/09/01 07:06:11;;;;;;;7.45;4.18;;;14.70;99.90;;;;;;5000520;28;91944;-31
2022/09/01 07:08:38;;;;;;;5.65;4.95;;;14.80;99.90;;;;;;4998246;28;90754;-32
2022/09/01 07:11:15;;;;;;;4.27;3.70;;;15.00;99.90;;;;;;5000184;28;88960;-35
2022/09/01 07:13:44;;;;;;;4.78;4.38;;;15.30;99.90;;;;;;5001026;28;90157;-36
2022/09/01 07:16:18;;;;;;;4.60;3.50;;;15.40;99.90;;;;;;5000582;28;89730;-32
2022/09/01 07:18:44;;;;;;;3.90;3.50;;;15.60;99.90;;;;;;5000310;28;89587;-34
2022/09/01 07:21:10;;;;;;;5.78;4.07;;;15.80;99.90;;;;;;5000538;28;90143;-36
2022/09/01 07:23:38;;;;;;;4.88;4.20;;;16.00;99.90;;;;;;5000751;28;90194;-31
2022/09/01 07:26:05;;;;;;;4.10;3.70;;;16.10;99.90;;;;;;5001079;28;89812;-29
2022/09/01 07:28:32;;;;;;;8.35;4.63;;;16.30;99.90;;;;;;4999988;28;88689;-34
2022/09/01 07:30:59;;;;;;;3.95;3.53;;;16.50;99.90;;;;;;5000514;28;89172;-35
2022/09/01 07:33:26;;;;;;;4.72;4.40;;;16.60;99.90;;;;;;4999853;28;91166;-29
2022/09/01 07:35:54;;;;;;;4.00;3.47;;;16.70;99.90;;;;;;4999822;28;90228;-33
2022/09/01 07:38:23;;;;;;;4.22;3.92;;;16.90;99.90;;;;;;5000347;28;91435;-32
2022/09/01 07:40:52;;;;;;;9.48;3.80;;;17.10;99.90;;;;;;5000054;28;89290;-32
2022/09/01 07:43:23;;;;;;;3.47;3.15;;;17.30;99.90;;;;;;4999350;28;90297;-32
2022/09/01 07:45:54;;;;;;;5.65;3.78;;;17.40;99.90;;;;;;5000126;28;89596;-34
2022/09/01 07:48:23;;;;;;;3.40;3.10;;;17.60;99.90;;;;;;4999746;28;90283;-31
2022/09/01 07:50:51;;;;;;;;;;;17.70;99.90;;;;;;5001069;28;88336;-34
2022/09/01 07:53:21;;;;;;;5.38;3.03;;;17.80;99.90;;;;;;5000150;28;89771;-30
2022/09/01 07:55:50;;;;;;;4.88;3.58;;;17.90;99.90;;;;;;4999774;28;88809;-33
2022/09/01 07:58:17;;;;;;;3.17;2.95;;;18.00;99.90;;;;;;4999544;28;89292;-33
2022/09/01 08:00:48;;;;;;;2.90;2.70;;;18.10;99.90;;;;;;5000343;28;89549;-30
2022/09/01 08:03:16;;;;;;;2.97;2.78;;;18.30;99.90;;;;;;4999169;28;89447;-31
2022/09/01 08:05:43;;;;;;;3.95;3.47;;;18.40;99.90;;;;;;5000136;28;89413;-31
2022/09/01 08:08:09;;;;;;;3.10;2.90;;;18.50;99.90;;;;;;5000133;28;90130;-32
2022/09/01 08:10:39;;;;;;;3.30;2.90;;;18.60;99.90;;;;;;4999157;28;89033;-31
2022/09/01 08:13:05;;;;;;;2.95;2.55;;;18.80;99.90;;;;;;4995962;28;90116;-30
2022/09/01 08:15:31;;;;;;;3.22;2.67;;;18.90;99.90;;;;;;4996002;28;90111;-32
2022/09/01 08:17:56;;;;;;;3.80;2.70;;;19.00;99.90;;;;;;4997233;28;89819;-31
2022/09/01 08:20:22;;;;;;;3.00;2.70;;;19.10;99.90;;;;;;4997529;28;88231;-32
2022/09/01 08:22:48;;;;;;;5.63;2.90;;;19.20;99.90;;;;;;4997415;28;91801;-33
2022/09/01 08:25:14;;;;;;;5.68;2.67;;;19.30;99.90;;;;;;4995393;28;91148;-31
2022/09/01 08:27:40;;;;;;;3.53;3.22;;;19.40;99.90;;;;;;4997485;28;89359;-34
2022/09/01 08:30:09;;;;;;;2.60;2.40;;;19.60;99.90;;;;;;4997601;28;88858;-34
2022/09/01 08:32:36;;;;;;;2.55;2.25;;;19.70;99.90;;;;;;4995401;28;89545;-31
2022/09/01 08:35:03;;;;;;;2.10;1.92;;;19.80;99.90;;;;;;4997013;28;89042;-31
2022/09/01 08:37:30;;;;;;;3.67;2.87;;;19.90;99.90;;;;;;4996694;28;90231;-34
2022/09/01 08:39:56;;;;;;;2.65;2.03;;;20.00;99.90;;;;;;4997484;28;89228;-30
2022/09/01 08:42:52;;;;;;;2.45;2.33;;;20.20;99.90;;;;;;4996563;28;89299;-33
2022/09/01 08:45:37;;;;;;;4.60;2.20;;;20.40;99.90;;;;;;4997437;28;90345;-32
2022/09/01 08:48:33;;;;;;;2.45;2.25;;;20.50;99.90;;;;;;4996956;28;89894;-32
2022/09/01 08:51:09;;;;;;;2.30;2.10;;;20.50;99.90;;;;;;4991576;28;89519;-31
2022/09/01 08:53:46;;;;;;;2.53;1.70;;;20.50;99.90;;;;;;4996100;28;90092;-35
2022/09/01 08:56:14;;;;;;;4.80;1.85;;;20.50;99.90;;;;;;4995665;28;90352;-35
2022/09/01 08:58:39;;;;;;;5.15;1.95;;;20.60;99.90;;;;;;4997303;28;89286;-33
2022/09/01 09:01:39;;;;;;;3.05;1.83;;;20.60;99.90;;;;;;4996649;28;88407;-33
2022/09/01 09:04:31;;;;;;;2.80;1.80;;;20.70;99.90;;;;;;4996424;28;89853;-31
2022/09/01 09:07:11;;;;;;;4.35;2.15;;;20.70;99.90;;;;;;4997009;28;90709;-32
2022/09/01 09:09:45;;;;;;;2.10;1.90;;;20.90;99.90;;;;;;4996230;28;89554;-30
2022/09/01 09:12:16;;;;;;;7.75;1.95;;;21.00;99.90;;;;;;4996371;28;88771;-31
2022/09/01 09:14:56;;;;;;;2.88;1.77;;;21.10;99.90;;;;;;4996907;28;92171;-30
2022/09/01 09:17:27;;;;;;;5.75;1.92;;;21.20;99.90;;;;;;4977515;28;90556;-33
2022/09/01 09:19:53;;;;;;;6.15;1.80;;;21.40;99.90;;;;;;4997012;28;90599;-31
2022/09/01 09:22:19;;;;;;;2.38;1.95;;;21.50;99.90;;;;;;4997247;28;89642;-32
2022/09/01 09:25:01;;;;;;;2.47;1.25;;;21.50;99.90;;;;;;4995921;28;90588;-34
2022/09/01 09:27:40;;;;;;;1.60;1.50;;;21.60;99.90;;;;;;4996384;28;89645;-31
2022/09/01 09:30:14;;;;;;;4.75;2.20;;;21.60;99.90;;;;;;4996422;28;89803;-32
2022/09/01 09:32:44;;;;;;;1.85;1.70;;;21.70;99.90;;;;;;4997035;28;90084;-33
2022/09/01 09:35:16;;;;;;;1.33;1.30;;;21.70;99.90;;;;;;4996808;28;90176;-34
2022/09/01 09:37:41;;;;;;;1.98;1.70;;;21.70;99.90;;;;;;4995779;28;89772;-33
2022/09/01 09:40:36;;;;;;;1.73;1.63;;;21.70;99.70;;;;;;4978968;28;89595;-34
2022/09/01 09:43:05;;;;;;;1.38;0.93;;;21.80;99.90;;;;;;4974247;28;89235;-33
2022/09/01 09:45:37;;;;;;;1.65;1.13;;;21.90;96.10;;;;;;4995876;28;90587;-33
2022/09/01 09:48:07;;;;;;;1.73;1.63;;;22.00;96.70;;;;;;4996608;28;89276;-31
2022/09/01 09:50:38;;;;;;;2.85;1.48;;;22.10;96.00;;;;;;4996917;28;89622;-31
2022/09/01 09:53:15;;;;;;;7.13;1.58;;;22.10;96.00;;;;;;4996704;28;89106;-32
2022/09/01 09:56:01;;;;;;;5.30;1.65;;;22.30;93.90;;;;;;4996594;28;90238;-32
2022/09/01 09:58:36;;;;;;;2.53;1.13;;;22.40;85.40;;;;;;4995687;28;89859;-31
2022/09/01 10:01:24;;;;;;;2.13;1.58;;;22.40;86.60;;;;;;4996684;28;89124;-34
2022/09/01 10:04:08;;;;;;;0.75;0.75;;;22.40;86.80;;;;;;4996084;28;89712;-32
2022/09/01 10:06:45;;;;;;;6.78;1.45;;;22.50;83.10;;;;;;4995805;28;90412;-34
2022/09/01 10:09:32;;;;;;;3.17;1.20;;;22.70;91.90;;;;;;4995488;28;89794;-31
2022/09/01 10:11:58;;;;;;;1.42;0.98;;;22.80;79.20;;;;;;4996765;28;90896;-32
2022/09/01 10:14:41;;;;;;;6.85;1.20;;;23.00;76.60;;;;;;4996412;28;88284;-34
2022/09/01 10:17:16;;;;;;;1.08;1.05;;;23.00;73.70;;;;;;4995351;28;90368;-34
2022/09/01 10:19:49;;;;;;;1.95;1.02;;;23.00;72.90;;;;;;4995931;28;88685;-33
2022/09/01 10:22:15;;;;;;;1.50;1.35;;;22.90;74.90;;;;;;4998903;28;89861;-35
2022/09/01 10:24:41;;;;;;;3.90;1.38;;;22.80;80.20;;;;;;4999604;28;89239;-32
2022/09/01 10:27:15;;;;;;;1.45;0.88;;;22.90;73.70;;;;;;4999408;28;90250;-31
2022/09/01 10:30:08;;;;;;;1.52;1.42;;;23.00;74.40;;;;;;4998298;28;90125;-34
2022/09/01 10:32:42;;;;;;;1.40;1.30;;;22.90;72.50;;;;;;4993489;28;89292;-32
2022/09/01 10:35:15;;;;;;;6.70;1.20;;;22.80;70.90;;;;;;4998265;28;90699;-34
2022/09/01 10:37:41;;;;;;;1.50;1.40;;;22.70;74.60;;;;;;4998669;28;90264;-34
2022/09/01 10:40:13;;;;;;;1.77;1.67;;;22.40;77.20;;;;;;4998894;28;90105;-33
2022/09/01 10:42:41;;;;;;;1.23;1.13;;;22.40;70.50;;;;;;4999239;28;89405;-35
2022/09/01 10:45:32;;;;;;;2.33;1.13;;;22.50;73.20;;;;;;4999157;28;88072;-32
2022/09/01 10:48:27;;;;;;;1.27;1.15;;;22.50;71.20;;;;;;4999117;28;89961;-35
2022/09/01 10:51:13;;;;;;;1.40;1.30;;;22.50;68.10;;;;;;4999328;28;90191;-34
2022/09/01 10:53:38;;;;;;;1.77;0.90;;;22.20;74.00;;;;;;4980312;28;89769;-32
2022/09/01 10:56:27;;;;;;;1.52;1.42;;;22.30;74.10;;;;;;4998646;28;88903;-35
2022/09/01 10:59:25;;;;;;;9.55;1.80;;;22.50;73.80;;;;;;4983345;28;90317;-32
2022/09/01 11:01:51;;;;;;;;;;;22.70;70.40;;;;;;4998370;28;92365;-31
2022/09/01 11:04:18;;;;;;;1.45;1.33;;;22.70;70.30;;;;;;4999179;28;90335;-35
2022/09/01 11:06:50;;;;;;;1.75;1.23;;;22.40;74.20;;;;;;4998836;28;90062;-32
2022/09/01 11:09:21;;;;;;;1.42;1.33;;;22.10;79.00;;;;;;4997546;28;90231;-34
2022/09/01 11:11:53;;;;;;;1.08;1.08;;;21.80;79.00;;;;;;4998502;28;89587;-32
2022/09/01 11:14:23;;;;;;;2.13;1.30;;;21.80;77.90;;;;;;4978731;28;89626;-34
2022/09/01 11:17:17;;;;;;;2.40;1.15;;;21.70;78.50;;;;;;4998058;28;89687;-32
2022/09/01 11:19:48;;;;;;;9.95;2.88;;;21.90;80.70;;;;;;4998643;28;90043;-31
2022/09/01 11:22:34;;;;;;;9.68;2.10;;;22.00;81.20;;;;;;4998091;28;90224;-32
2022/09/01 11:25:39;;;;;;;1.60;1.50;;;22.00;82.60;;;;;;4998020;28;89605;-35
2022/09/01 11:28:31;;;;;;;5.55;1.35;;;22.20;86.10;;;;;;4991324;28;89704;-34
2022/09/01 11:31:07;;;;;;;4.82;1.90;;;22.50;75.30;;;;;;4991352;28;90363;-35
2022/09/01 11:33:51;;;;;;;2.35;1.50;;;22.60;71.00;;;;;;4996833;28;90642;-35
2022/09/01 11:36:30;;;;;;;1.98;1.75;;;22.80;71.50;;;;;;4997717;28;89446;-36
2022/09/01 11:39:21;;;;;;;3.42;1.25;;;23.10;71.80;;;;;;4997700;28;88623;-33
2022/09/01 11:42:20;;;;;;;2.55;1.30;;;23.40;66.10;;;;;;4992516;28;90116;-32
2022/09/01 11:45:04;;;;;;;2.15;1.10;;;23.30;65.60;;;;;;4992089;28;89712;-34
2022/09/01 11:47:37;;;;;;;1.77;1.67;;;23.20;67.20;;;;;;4998052;28;87792;-35
2022/09/01 11:50:06;;;;;;;1.80;1.35;;;23.30;67.40;;;;;;4997638;28;89424;-33
2022/09/01 11:52:37;;;;;;;2.55;1.67;;;23.50;65.10;;;;;;4997211;28;91292;-35
2022/09/01 11:55:05;;;;;;;1.35;1.27;;;23.70;63.80;;;;;;4996908;28;90669;-33
2022/09/01 11:57:37;;;;;;;1.17;1.08;;;23.80;60.40;;;;;;4996922;28;90342;-34
2022/09/01 12:00:10;;;;;;;1.88;1.10;;;23.80;59.80;;;;;;4998637;28;89675;-31
2022/09/01 12:02:49;;;;;;;1.92;1.20;;;23.70;62.20;;;;;;4979409;28;90488;-33
2022/09/01 12:05:30;;;;;;;1.38;1.05;;;23.70;60.30;;;;;;4996896;28;89774;-34
2022/09/01 12:07:57;;;;;;;1.10;1.08;;;23.30;60.50;;;;;;4997790;28;89458;-34
2022/09/01 12:10:26;;;;;;;5.97;1.58;;;23.10;62.40;;;;;;4997459;28;89255;-35
2022/09/01 12:13:09;;;;;;;1.35;1.10;;;22.90;63.40;;;;;;4998190;28;89111;-33
2022/09/01 12:15:40;;;;;;;2.20;1.75;;;23.00;63.10;;;;;;4996419;28;90185;-34
2022/09/01 12:18:20;;;;;;;1.30;1.20;;;23.00;65.00;;;;;;4998277;28;90379;-35
2022/09/01 12:20:51;;;;;;;2.38;1.55;;;23.00;65.20;;;;;;4997893;28;89583;-33
2022/09/01 12:23:28;;;;;;;2.67;1.60;;;22.90;65.40;;;;;;4997422;28;90339;-32
2022/09/01 12:25:56;;;;;;;3.50;1.10;;;22.80;64.10;;;;;;4996525;28;89929;-35
2022/09/01 12:28:23;;;;;;;;;;;22.70;67.00;;;;;;4993982;28;89519;-33
2022/09/01 12:30:50;;;;;;;1.00;0.90;;;22.80;67.00;;;;;;4998147;28;89416;-35
2022/09/01 12:33:18;;;;;;;1.90;1.20;;;22.80;67.20;;;;;;5043146;22;90187;-31
2022/09/01 12:35:44;;;;;;;6.20;1.50;;;23.20;64.60;;;;;;5016897;27;90885;-35
2022/09/01 12:38:19;;;;;;;1.20;1.20;;;23.50;67.40;;;;;;5017108;27;91330;-34
2022/09/01 12:40:48;;;;;;;1.00;1.00;;;23.60;61.20;;;;;;5015215;28;89263;-35
2022/09/01 12:43:27;;;;;;;2.33;1.33;;;23.50;60.30;;;;;;5016415;27;90451;-35
2022/09/01 12:45:53;;;;;;;2.17;1.60;;;23.40;62.30;;;;;;5016907;27;90280;-35
2022/09/01 12:48:31;;;;;;;1.27;1.20;;;23.10;62.90;;;;;;5015249;28;91018;-32
2022/09/01 12:51:21;;;;;;;2.17;1.90;;;22.90;64.40;;;;;;5017155;28;89022;-34
2022/09/01 12:53:56;;;;;;;1.85;1.33;;;22.80;65.00;;;;;;5008912;27;90148;-33
2022/09/01 12:56:38;;;;;;;1.73;1.00;;;23.00;68.10;;;;;;5016631;27;90422;-33
2022/09/01 12:59:19;;;;;;;1.50;1.08;;;23.30;62.30;;;;;;5016382;28;89708;-35
2022/09/01 13:01:45;;;;;;;2.60;1.13;;;23.20;60.50;;;;;;5017605;28;89138;-34
2022/09/01 13:04:29;;;;;;;3.00;1.00;;;23.10;62.40;;;;;;5017670;27;89035;-36
2022/09/01 13:07:04;;;;;;;1.75;1.25;;;23.00;63.80;;;;;;5017735;28;90215;-33
2022/09/01 13:09:30;;;;;;;1.95;1.23;;;22.80;63.30;;;;;;5016275;27;89979;-35
2022/09/01 13:12:10;;;;;;;1.63;1.52;;;22.60;63.20;;;;;;5016474;27;89544;-33
2022/09/01 13:14:35;;;;;;;1.10;0.90;;;22.50;63.90;;;;;;5016533;27;90500;-35
2022/09/01 13:17:01;;;;;;;2.53;1.20;;;22.70;65.10;;;;;;5016665;28;89570;-35